Time;durP1;ratioP1;P1;durP2;ratioP2;P2;SDS_P1;SDS_P2;PMS_P1;PMS_P2;Temp;Humidity;BMP_temperature;BMP_pressure;BME280_temperature;BME280_humidity;BME280_pressure;Samples;Min_cycle;Max_cycle;Signal;HPM_P1;HPM_P2
2023/05/08 00:01:03;;;;;;;;;;;;;;;;;;5111254;28;19912;-67
2023/05/08 00:03:29;;;;;;;;;;;;;;;;;;5111521;28;19912;-68
2023/05/08 00:05:55;;;;;;;;;;;;;;;;;;5111117;28;19909;-68
2023/05/08 00:08:21;;;;;;;;;;;;;;;;;;5111713;28;19908;-68
2023/05/08 00:10:48;;;;;;;;;;;;;;;;;;5109936;28;19916;-69
2023/05/08 00:13:14;;;;;;;;;;;;;;;;;;5111013;28;19908;-69
2023/05/08 00:15:40;;;;;;;;;;;;;;;;;;5111556;28;19915;-68
2023/05/08 00:18:06;;;;;;;;;;;;;;;;;;5111283;28;19999;-69
2023/05/08 00:22:18;;;;;;;;;;;;;;;;;;5112203;27;19916;-68
2023/05/08 00:24:44;;;;;;;;;;;;;;;;;;5111724;28;20002;-68
2023/05/08 00:27:11;;;;;;;;;;;;;;;;;;5111327;28;19908;-68
2023/05/08 00:29:39;;;;;;;;;;;;;;;;;;5111585;28;20368;-68
2023/05/08 00:33:18;;;;;;;;;;;;;;;;;;5111860;27;19916;-68
2023/05/08 00:35:43;;;;;;;;;;;;;;;;;;5111438;28;19983;-68
2023/05/08 00:40:35;;;;;;;;;;;;;;;;;;5092117;28;19923;-68
2023/05/08 00:43:01;;;;;;;;;;;;;;;;;;5090995;28;19999;-68
2023/05/08 00:45:48;;;;;;;;;;;;;;;;;;5092265;27;19912;-68
2023/05/08 00:48:14;;;;;;;;;;;;;;;;;;5090936;28;20006;-68
2023/05/08 00:54:37;;;;;;;;;;;;;;;;;;5091774;28;20376;-67
2023/05/08 00:57:02;;;;;;;;;;;;;;;;;;5090982;28;20003;-67
2023/05/08 00:59:28;;;;;;;;;;;;;;;;;;5091267;28;20414;-68
2023/05/08 01:02:49;;;;;;;;;;;;;;;;;;5091226;27;19922;-67
2023/05/08 01:05:15;;;;;;;;;;;;;;;;;;5091324;28;20002;-67
2023/05/08 01:07:41;;;;;;;;;;;;;;;;;;5091500;28;19953;-67
2023/05/08 01:10:07;;;;;;;;;;;;;;;;;;5091007;28;19915;-68
2023/05/08 01:12:33;;;;;;;;;;;;;;;;;;5091250;28;20437;-68
2023/05/08 01:14:59;;;;;;;;;;;;;;;;;;5091323;28;20360;-70
2023/05/08 01:17:25;;;;;;;;;;;;;;;;;;5090761;28;19908;-68
2023/05/08 01:19:51;;;;;;;;;;;;;;;;;;5090944;28;19909;-67
2023/05/08 01:22:17;;;;;;;;;;;;;;;;;;5091040;28;19917;-68
2023/05/08 01:24:42;;;;;;;;;;;;;;;;;;5090660;28;19916;-68
2023/05/08 01:27:55;;;;;;;;;;;;;;;;;;5112589;27;19912;-68
2023/05/08 01:30:40;;;;;;;;;;;;;;;;;;5111749;27;19912;-68
2023/05/08 01:33:06;;;;;;;;;;;;;;;;;;5111769;28;20007;-68
2023/05/08 01:35:32;;;;;;;;;;;;;;;;;;5111774;28;19961;-68
2023/05/08 01:37:58;;;;;;;;;;;;;;;;;;5111217;28;19912;-68
2023/05/08 01:41:18;;;;;;;;;;;;;;;;;;5153230;27;20014;-67
2023/05/08 01:43:44;;;;;;;;;;;;;;;;;;5152856;27;19939;-68
2023/05/08 01:46:10;;;;;;;;;;;;;;;;;;5152427;27;19950;-68
2023/05/08 01:48:36;;;;;;;;;;;;;;;;;;5152817;27;19911;-68
2023/05/08 01:51:02;;;;;;;;;;;;;;;;;;5152938;27;19967;-68
2023/05/08 01:53:28;;;;;;;;;;;;;;;;;;5152256;27;19911;-67
2023/05/08 01:55:54;;;;;;;;;;;;;;;;;;5152602;27;19908;-67
2023/05/08 01:58:20;;;;;;;;;;;;;;;;;;5152576;27;19908;-67
2023/05/08 02:00:46;;;;;;;;;;;;;;;;;;5152878;27;19980;-67
2023/05/08 02:03:12;;;;;;;;;;;;;;;;;;5152505;27;19998;-67
2023/05/08 02:05:38;;;;;;;;;;;;;;;;;;5152032;27;19958;-68
2023/05/08 02:08:04;;;;;;;;;;;;;;;;;;5152621;27;19915;-68
2023/05/08 02:10:30;;;;;;;;;;;;;;;;;;5152492;27;19908;-68
2023/05/08 02:12:56;;;;;;;;;;;;;;;;;;5152701;27;19937;-68
2023/05/08 02:15:22;;;;;;;;;;;;;;;;;;5152220;27;19959;-68
2023/05/08 02:17:48;;;;;;;;;;;;;;;;;;5152396;27;19914;-68
2023/05/08 02:20:14;;;;;;;;;;;;;;;;;;5151952;27;19916;-68
2023/05/08 02:22:40;;;;;;;;;;;;;;;;;;5152117;27;19915;-67
2023/05/08 02:25:06;;;;;;;;;;;;;;;;;;5152098;27;19911;-68
2023/05/08 02:27:32;;;;;;;;;;;;;;;;;;5151634;27;19907;-67
2023/05/08 02:29:59;;;;;;;;;;;;;;;;;;5151932;27;20010;-67
2023/05/08 02:32:25;;;;;;;;;;;;;;;;;;5133775;27;20361;-68
2023/05/08 02:34:51;;;;;;;;;;;;;;;;;;5151454;27;19908;-69
2023/05/08 02:37:17;;;;;;;;;;;;;;;;;;5151874;27;19907;-68
2023/05/08 02:39:43;;;;;;;;;;;;;;;;;;5151539;27;19926;-68
2023/05/08 02:42:09;;;;;;;;;;;;;;;;;;5151409;27;19907;-68
2023/05/08 02:44:35;;;;;;;;;;;;;;;;;;5151663;27;19915;-68
2023/05/08 02:47:00;;;;;;;;;;;;;;;;;;5151666;27;19909;-68
2023/05/08 02:49:27;;;;;;;;;;;;;;;;;;5151315;27;19911;-68
2023/05/08 02:51:53;;;;;;;;;;;;;;;;;;5141991;27;19942;-68
2023/05/08 02:54:19;;;;;;;;;;;;;;;;;;5136449;27;19911;-68
2023/05/08 02:56:45;;;;;;;;;;;;;;;;;;5137407;27;19914;-68
2023/05/08 02:59:11;;;;;;;;;;;;;;;;;;5137581;27;19912;-68
2023/05/08 03:01:37;;;;;;;;;;;;;;;;;;5137752;27;19920;-68
2023/05/08 03:04:03;;;;;;;;;;;;;;;;;;5136208;27;19964;-68
2023/05/08 03:06:29;;;;;;;;;;;;;;;;;;5137523;27;19907;-68
2023/05/08 03:08:55;;;;;;;;;;;;;;;;;;5137052;27;19911;-68
2023/05/08 03:11:21;;;;;;;;;;;;;;;;;;5137897;27;20283;-68
2023/05/08 03:13:47;;;;;;;;;;;;;;;;;;5136148;27;20255;-68
2023/05/08 03:16:13;;;;;;;;;;;;;;;;;;5137079;27;20399;-68
2023/05/08 03:18:39;;;;;;;;;;;;;;;;;;5136087;27;20355;-67
2023/05/08 03:21:05;;;;;;;;;;;;;;;;;;5137094;27;19963;-68
2023/05/08 03:23:31;;;;;;;;;;;;;;;;;;5136971;27;19908;-68
2023/05/08 03:25:57;;;;;;;;;;;;;;;;;;5135911;27;19907;-68
2023/05/08 03:28:23;;;;;;;;;;;;;;;;;;5137384;27;20010;-67
2023/05/08 03:30:49;;;;;;;;;;;;;;;;;;5136951;27;20357;-68
2023/05/08 03:33:15;;;;;;;;;;;;;;;;;;5137120;27;20418;-68
2023/05/08 03:35:41;;;;;;;;;;;;;;;;;;5137198;27;19907;-68
2023/05/08 03:38:07;;;;;;;;;;;;;;;;;;5136533;27;19907;-68
2023/05/08 03:40:41;;;;;;;;;;;;;;;;;;5136480;27;20095;-68
2023/05/08 03:43:07;;;;;;;;;;;;;;;;;;5136764;27;20018;-68
2023/05/08 03:45:33;;;;;;;;;;;;;;;;;;5134913;27;20402;-68
2023/05/08 03:47:59;;;;;;;;;;;;;;;;;;5136807;27;19908;-68
2023/05/08 03:50:25;;;;;;;;;;;;;;;;;;5136821;27;19908;-68
2023/05/08 03:52:51;;;;;;;;;;;;;;;;;;5136209;27;20033;-68
2023/05/08 03:55:17;;;;;;;;;;;;;;;;;;5136585;27;19964;-67
2023/05/08 03:57:43;;;;;;;;;;;;;;;;;;5136422;27;19907;-68
2023/05/08 04:00:09;;;;;;;;;;;;;;;;;;5135926;27;19915;-67
2023/05/08 04:02:35;;;;;;;;;;;;;;;;;;5135807;27;19946;-68
2023/05/08 04:05:01;;;;;;;;;;;;;;;;;;5135785;27;20288;-69
2023/05/08 04:07:27;;;;;;;;;;;;;;;;;;5136347;27;20003;-69
2023/05/08 04:09:53;;;;;;;;;;;;;;;;;;5135669;27;19939;-68
2023/05/08 04:12:19;;;;;;;;;;;;;;;;;;5135106;27;19950;-69
2023/05/08 04:14:45;;;;;;;;;;;;;;;;;;5135969;27;20364;-69
2023/05/08 04:17:11;;;;;;;;;;;;;;;;;;5136022;27;19942;-69
2023/05/08 04:19:37;;;;;;;;;;;;;;;;;;5135618;27;20260;-69
2023/05/08 04:22:02;;;;;;;;;;;;;;;;;;5136044;27;20018;-69
2023/05/08 04:24:28;;;;;;;;;;;;;;;;;;5134638;27;19908;-69
2023/05/08 04:26:54;;;;;;;;;;;;;;;;;;5135471;27;19908;-69
2023/05/08 04:29:20;;;;;;;;;;;;;;;;;;5136080;27;19914;-69
2023/05/08 04:31:46;;;;;;;;;;;;;;;;;;5135878;27;19987;-70
2023/05/08 04:34:12;;;;;;;;;;;;;;;;;;5135398;27;20291;-70
2023/05/08 04:36:39;;;;;;;;;;;;;;;;;;5135470;27;19909;-69
2023/05/08 04:39:05;;;;;;;;;;;;;;;;;;5135471;27;19914;-69
2023/05/08 04:41:31;;;;;;;;;;;;;;;;;;5135329;27;19908;-69
2023/05/08 04:43:57;;;;;;;;;;;;;;;;;;5135498;27;19908;-67
2023/05/08 04:46:24;;;;;;;;;;;;;;;;;;5134178;27;19914;-69
2023/05/08 04:48:50;;;;;;;;;;;;;;;;;;5134484;27;20374;-67
2023/05/08 04:51:16;;;;;;;;;;;;;;;;;;5133299;27;19918;-68
2023/05/08 04:55:11;;;;;;;;;;;;;;;;;;5070836;28;20304;-68
2023/05/08 04:57:37;;;;;;;;;;;;;;;;;;5070566;28;19912;-68
2023/05/08 05:00:05;;;;;;;;;;;;;;;;;;5069262;28;20610;-68
2023/05/08 05:02:30;;;;;;;;;;;;;;;;;;5068737;28;19954;-68
2023/05/08 05:04:57;;;;;;;;;;;;;;;;;;5068924;28;19909;-68
2023/05/08 05:07:23;;;;;;;;;;;;;;;;;;5069085;28;19913;-69
2023/05/08 05:10:24;;;;;;;;;;;;;;;;;;5068759;28;19917;-68
2023/05/08 05:12:50;;;;;;;;;;;;;;;;;;5069651;28;19912;-69
2023/05/08 05:15:16;;;;;;;;;;;;;;;;;;5067610;28;19913;-67
2023/05/08 05:17:42;;;;;;;;;;;;;;;;;;5066032;28;19915;-69
2023/05/08 05:22:25;;;;;;;;;;;;;;;;;;5089951;27;19916;-70
2023/05/08 05:24:51;;;;;;;;;;;;;;;;;;5084077;28;19913;-70
2023/05/08 05:27:17;;;;;;;;;;;;;;;;;;5083537;28;19976;-68
2023/05/08 05:29:42;;;;;;;;;;;;;;;;;;5082542;28;19995;-68
2023/05/08 05:32:10;;;;;;;;;;;;;;;;;;5079967;28;19913;-66
2023/05/08 05:34:36;;;;;;;;;;;;;;;;;;5083515;28;19962;-66
2023/05/08 05:37:02;;;;;;;;;;;;;;;;;;5099206;28;19909;-68
2023/05/08 05:40:03;;;;;;;;;;;;;;;;;;5080969;28;19936;-66
2023/05/08 05:44:42;;;;;;;;;;;;;;;;;;5115978;27;19923;-65
2023/05/08 05:50:05;;;;;;;;;;;;;;;;;;5075212;27;19924;-63
2023/05/08 05:53:57;;;;;;;;;;;;;;;;;;5142831;27;19912;-65
2023/05/08 05:57:04;;;;;;;;;;;;;;;;;;5114652;27;19916;-65
2023/05/08 05:59:30;;;;;;;;;;;;;;;;;;5117168;28;19922;-65
2023/05/08 06:01:56;;;;;;;;;;;;;;;;;;5108908;28;21121;-65
2023/05/08 06:04:22;;;;;;;;;;;;;;;;;;5106756;27;19908;-65
2023/05/08 06:08:16;;;;;;;;;;;;;;;;;;5118364;27;19915;-64
2023/05/08 06:10:42;;;;;;;;;;;;;;;;;;5124020;28;19915;-64
2023/05/08 06:13:08;;;;;;;;;;;;;;;;;;5099922;28;20285;-64
2023/05/08 06:20:51;;;;;;;;;;;;;;;;;;5087363;28;19920;-64
2023/05/08 06:26:06;;;;;;;;;;;;;;;;;;5089412;27;20386;-64
2023/05/08 06:28:32;;;;;;;;;;;;;;;;;;5088575;28;19912;-64
2023/05/08 06:33:10;;;;;;;;;;;;;;;;;;5105690;27;19912;-66
2023/05/08 06:35:36;;;;;;;;;;;;;;;;;;5099012;28;20296;-65
2023/05/08 06:38:02;;;;;;;;;;;;;;;;;;5090858;28;19908;-64
2023/05/08 06:40:28;;;;;;;;;;;;;;;;;;5089622;28;20629;-64
2023/05/08 06:42:54;;;;;;;;;;;;;;;;;;5089083;28;20327;-64
2023/05/08 06:45:35;;;;;;;;;;;;;;;;;;5109039;27;19920;-65
2023/05/08 06:48:00;;;;;;;;;;;;;;;;;;5105702;28;19940;-65
2023/05/08 06:50:26;;;;;;;;;;;;;;;;;;5108087;28;19947;-65
2023/05/08 06:55:20;;;;;;;;;;;;;;;;;;5071119;28;19939;-64
2023/05/08 06:57:46;;;;;;;;;;;;;;;;;;5062377;28;19912;-65
2023/05/08 07:07:14;;;;;;;;;;;;;;;;;;5168930;27;20414;-66
2023/05/08 07:09:40;;;;;;;;;;;;;;;;;;5148820;27;19911;-66
2023/05/08 07:12:07;;;;;;;;;;;;;;;;;;5142048;27;20382;-67
2023/05/08 07:14:33;;;;;;;;;;;;;;;;;;5133632;27;19965;-65
2023/05/08 07:17:42;;;;;;;;;;;;;;;;;;5085691;27;19920;-66
2023/05/08 07:20:50;;;;;;;;;;;;;;;;;;5089065;27;19916;-66
2023/05/08 07:23:16;;;;;;;;;;;;;;;;;;5084253;28;20007;-65
2023/05/08 07:25:42;;;;;;;;;;;;;;;;;;5095921;28;19919;-66
2023/05/08 07:29:40;;;;;;;;;;;;;;;;;;5083154;27;19943;-66
2023/05/08 07:32:06;;;;;;;;;;;;;;;;;;5063756;28;19912;-65
2023/05/08 07:38:32;;;;;;;;;;;;;;;;;;5101997;27;20566;-64
2023/05/08 07:42:52;;;;;;;;;;;;;;;;;;5082129;27;19923;-66
2023/05/08 07:45:18;;;;;;;;;;;;;;;;;;5079209;28;19916;-65
2023/05/08 07:47:45;;;;;;;;;;;;;;;;;;5077984;28;19974;-64
2023/05/08 07:50:11;;;;;;;;;;;;;;;;;;5072962;28;20030;-65
2023/05/08 07:52:51;;;;;;;;;;;;;;;;;;5127385;27;19938;-64
2023/05/08 07:55:17;;;;;;;;;;;;;;;;;;5115851;28;19969;-64
2023/05/08 07:57:43;;;;;;;;;;;;;;;;;;5119767;28;20479;-64
2023/05/08 08:00:09;;;;;;;;;;;;;;;;;;5107516;28;20014;-64
2023/05/08 08:04:33;;;;;;;;;;;;;;;;;;5086940;27;19916;-63
2023/05/08 08:11:52;;;;;;;;;;;;;;;;;;5084674;27;19916;-63
2023/05/08 08:17:14;;;;;;;;;;;;;;;;;;5079912;27;20311;-64
2023/05/08 08:19:40;;;;;;;;;;;;;;;;;;5069018;28;20469;-65
2023/05/08 08:22:06;;;;;;;;;;;;;;;;;;5071975;28;19973;-64
2023/05/08 08:24:32;;;;;;;;;;;;;;;;;;5067297;28;19956;-65
2023/05/08 08:26:58;;;;;;;;;;;;;;;;;;5066657;28;19982;-65
2023/05/08 08:32:50;;;;;;;;;;;;;;;;;;5082499;27;19926;-65
2023/05/08 08:38:25;;;;;;;;;;;;;;;;;;5080031;27;20325;-65
2023/05/08 08:42:22;;;;;;;;;;;;;;;;;;5100163;27;19930;-65
2023/05/08 08:44:48;;;;;;;;;;;;;;;;;;5103784;28;19912;-66
2023/05/08 08:47:14;;;;;;;;;;;;;;;;;;5104476;28;19908;-66
2023/05/08 08:49:40;;;;;;;;;;;;;;;;;;5106916;28;19908;-67
2023/05/08 08:52:06;;;;;;;;;;;;;;;;;;5108295;28;19915;-67
2023/05/08 08:55:07;;;;;;;;;;;;;;;;;;5107561;27;20291;-66
2023/05/08 08:57:32;;;;;;;;;;;;;;;;;;5106692;28;20501;-67
2023/05/08 09:00:55;;;;;;;;;;;;;;;;;;5081506;28;20304;-65
2023/05/08 09:03:20;;;;;;;;;;;;;;;;;;5087006;28;19919;-66
2023/05/08 09:05:51;;;;;;;;;;;;;;;;;;5086385;28;19995;-66
2023/05/08 09:08:17;;;;;;;;;;;;;;;;;;5084618;28;19956;-67
2023/05/08 09:12:11;;;;;;;;;;;;;;;;;;5144257;27;19916;-66
2023/05/08 09:14:37;;;;;;;;;;;;;;;;;;5145879;27;19922;-67
2023/05/08 09:17:03;;;;;;;;;;;;;;;;;;5143337;27;19908;-66
2023/05/08 09:19:29;;;;;;;;;;;;;;;;;;5132750;27;20008;-66
2023/05/08 09:21:55;;;;;;;;;;;;;;;;;;5108906;27;19912;-66
2023/05/08 09:24:22;;;;;;;;;;;;;;;;;;5132861;27;19915;-67
2023/05/08 09:26:48;;;;;;;;;;;;;;;;;;5146109;27;19907;-66
2023/05/08 09:29:14;;;;;;;;;;;;;;;;;;5105547;28;19960;-66
2023/05/08 09:31:40;;;;;;;;;;;;;;;;;;5126635;28;19952;-66
2023/05/08 09:34:06;;;;;;;;;;;;;;;;;;5124948;28;19946;-66
2023/05/08 09:39:46;;;;;;;;;;;;;;;;;;5144723;27;19926;-66
2023/05/08 09:42:12;;;;;;;;;;;;;;;;;;5125365;27;19957;-67
2023/05/08 09:44:38;;;;;;;;;;;;;;;;;;5136994;27;19911;-67
2023/05/08 09:48:03;;;;;;;;;;;;;;;;;;5066151;28;19916;-67
2023/05/08 09:55:48;;;;;;;;;;;;;;;;;;5103000;27;19916;-66
2023/05/08 10:01:45;;;;;;;;;;;;;;;;;;5085286;27;19947;-65
2023/05/08 10:07:03;;;;;;;;;;;;;;;;;;5085403;27;20282;-65
2023/05/08 10:10:13;;;;;;;;;;;;;;;;;;5137392;27;19912;-66
2023/05/08 10:14:18;;;;;;;;;;;;;;;;;;5140929;27;19930;-65
2023/05/08 10:16:44;;;;;;;;;;;;;;;;;;5136468;27;19951;-65
2023/05/08 10:19:50;;;;;;;;;;;;;;;;;;5125387;27;20587;-66
2023/05/08 10:22:16;;;;;;;;;;;;;;;;;;5106785;28;19920;-66
2023/05/08 10:25:31;;;;;;;;;;;;;;;;;;5085568;27;19922;-65
2023/05/08 10:27:57;;;;;;;;;;;;;;;;;;5081393;28;19919;-65
2023/05/08 10:30:22;;;;;;;;;;;;;;;;;;5065714;28;20364;-66
2023/05/08 10:32:50;;;;;;;;;;;;;;;;;;5064734;28;20290;-65
2023/05/08 10:35:16;;;;;;;;;;;;;;;;;;5065157;28;20367;-65
2023/05/08 10:39:33;;;;;;;;;;;;;;;;;;5126690;27;19922;-65
2023/05/08 10:43:02;;;;;;;;;;;;;;;;;;5129662;27;19912;-67
2023/05/08 10:45:29;;;;;;;;;;;;;;;;;;5126437;28;19912;-67
2023/05/08 10:49:30;;;;;;;;;;;;;;;;;;5089670;27;19922;-67
2023/05/08 10:52:41;;;;;;;;;;;;;;;;;;5169766;27;19926;-68
2023/05/08 10:55:07;;;;;;;;;;;;;;;;;;5172104;27;20002;-68
2023/05/08 10:59:07;;;;;;;;;;;;;;;;;;5128414;27;20307;-67
2023/05/08 11:01:33;;;;;;;;;;;;;;;;;;5129020;28;19918;-67
2023/05/08 11:03:59;;;;;;;;;;;;;;;;;;5127467;28;20309;-66
2023/05/08 11:06:25;;;;;;;;;;;;;;;;;;5128924;27;19966;-67
2023/05/08 11:08:53;;;;;;;;;;;;;;;;;;5129815;28;19939;-68
2023/05/08 11:11:20;;;;;;;;;;;;;;;;;;5129903;27;19912;-66
2023/05/08 11:13:46;;;;;;;;;;;;;;;;;;5128755;27;20002;-66
2023/05/08 11:16:12;;;;;;;;;;;;;;;;;;5124366;28;20027;-66
2023/05/08 11:18:38;;;;;;;;;;;;;;;;;;5128279;28;19920;-64
2023/05/08 11:21:04;;;;;;;;;;;;;;;;;;5127847;28;19942;-65
2023/05/08 11:23:31;;;;;;;;;;;;;;;;;;5110332;28;19915;-65
2023/05/08 11:25:57;;;;;;;;;;;;;;;;;;5106998;28;19987;-65
2023/05/08 11:29:08;;;;;;;;;;;;;;;;;;5086985;28;19927;-65
2023/05/08 11:31:34;;;;;;;;;;;;;;;;;;5087453;28;19912;-65
2023/05/08 11:34:00;;;;;;;;;;;;;;;;;;5088485;28;20365;-64
2023/05/08 11:36:27;;;;;;;;;;;;;;;;;;5088425;28;19915;-64
2023/05/08 11:38:53;;;;;;;;;;;;;;;;;;5088886;28;19952;-64
2023/05/08 11:41:20;;;;;;;;;;;;;;;;;;5087422;28;19962;-64
2023/05/08 11:43:46;;;;;;;;;;;;;;;;;;5089004;28;19947;-66
2023/05/08 11:46:12;;;;;;;;;;;;;;;;;;5088013;28;19908;-64
2023/05/08 11:48:38;;;;;;;;;;;;;;;;;;5088361;28;19931;-65
2023/05/08 11:51:04;;;;;;;;;;;;;;;;;;5087839;28;19908;-64
2023/05/08 11:53:30;;;;;;;;;;;;;;;;;;5088042;28;19939;-65
2023/05/08 11:55:56;;;;;;;;;;;;;;;;;;5088078;28;19909;-65
2023/05/08 11:58:22;;;;;;;;;;;;;;;;;;5086804;28;19915;-65
2023/05/08 12:00:48;;;;;;;;;;;;;;;;;;5082036;28;19908;-63
2023/05/08 12:03:14;;;;;;;;;;;;;;;;;;5065765;28;19922;-65
2023/05/08 12:05:40;;;;;;;;;;;;;;;;;;5067709;28;19925;-65
2023/05/08 12:08:06;;;;;;;;;;;;;;;;;;5067577;28;19917;-65
2023/05/08 12:10:32;;;;;;;;;;;;;;;;;;5067031;28;19936;-65
2023/05/08 12:12:58;;;;;;;;;;;;;;;;;;5072664;28;19978;-64
2023/05/08 12:15:24;;;;;;;;;;;;;;;;;;5070924;28;19908;-65
2023/05/08 12:17:50;;;;;;;;;;;;;;;;;;5068006;28;19915;-65
2023/05/08 12:20:16;;;;;;;;;;;;;;;;;;5066769;28;20337;-65
2023/05/08 12:22:42;;;;;;;;;;;;;;;;;;5068417;28;19909;-66
2023/05/08 12:25:08;;;;;;;;;;;;;;;;;;5067999;28;19975;-63
2023/05/08 12:27:36;;;;;;;;;;;;;;;;;;5067332;28;19927;-65
2023/05/08 12:30:02;;;;;;;;;;;;;;;;;;5068700;28;19908;-65
2023/05/08 12:32:28;;;;;;;;;;;;;;;;;;5065175;28;19915;-65
2023/05/08 12:34:54;;;;;;;;;;;;;;;;;;5066365;28;20052;-65
2023/05/08 12:37:20;;;;;;;;;;;;;;;;;;5066212;28;19913;-64
2023/05/08 12:39:46;;;;;;;;;;;;;;;;;;5056597;28;19991;-65
2023/05/08 12:42:12;;;;;;;;;;;;;;;;;;5053298;28;20007;-65
2023/05/08 12:44:38;;;;;;;;;;;;;;;;;;5051963;28;19913;-65
2023/05/08 12:47:04;;;;;;;;;;;;;;;;;;5053255;28;19912;-64
2023/05/08 12:49:30;;;;;;;;;;;;;;;;;;5074417;28;19920;-64
2023/05/08 12:51:56;;;;;;;;;;;;;;;;;;5074312;28;19965;-65
2023/05/08 12:54:22;;;;;;;;;;;;;;;;;;5074120;28;19908;-67
2023/05/08 12:56:48;;;;;;;;;;;;;;;;;;5076037;28;19912;-69
2023/05/08 12:59:14;;;;;;;;;;;;;;;;;;5073086;28;19909;-70
2023/05/08 13:01:40;;;;;;;;;;;;;;;;;;5075294;28;19909;-70
2023/05/08 13:04:05;;;;;;;;;;;;;;;;;;5074632;28;19915;-69
2023/05/08 13:06:31;;;;;;;;;;;;;;;;;;5073769;28;19970;-69
2023/05/08 13:08:57;;;;;;;;;;;;;;;;;;5073873;28;19920;-69
2023/05/08 13:11:23;;;;;;;;;;;;;;;;;;5074278;28;19909;-69
2023/05/08 13:13:49;;;;;;;;;;;;;;;;;;5074230;28;19952;-69
2023/05/08 13:16:15;;;;;;;;;;;;;;;;;;5075134;28;19909;-69
2023/05/08 13:18:41;;;;;;;;;;;;;;;;;;5074426;28;19908;-71
2023/05/08 13:21:07;;;;;;;;;;;;;;;;;;5075861;28;20427;-70
2023/05/08 13:23:33;;;;;;;;;;;;;;;;;;5075791;28;19915;-70
2023/05/08 13:25:59;;;;;;;;;;;;;;;;;;5075713;28;19908;-70
2023/05/08 13:28:25;;;;;;;;;;;;;;;;;;5089720;28;19927;-70
2023/05/08 13:30:51;;;;;;;;;;;;;;;;;;5095798;28;19909;-70
2023/05/08 13:33:17;;;;;;;;;;;;;;;;;;5095639;28;20010;-70
2023/05/08 13:35:43;;;;;;;;;;;;;;;;;;5095274;28;19908;-70
2023/05/08 13:38:09;;;;;;;;;;;;;;;;;;5077494;28;19908;-69
2023/05/08 13:40:35;;;;;;;;;;;;;;;;;;5095564;28;19908;-69
2023/05/08 13:48:16;;;;;;;;;;;;;;;;;;5112469;27;19916;-69
2023/05/08 13:50:42;;;;;;;;;;;;;;;;;;5111220;28;19918;-69
2023/05/08 13:53:08;;;;;;;;;;;;;;;;;;5111695;28;19908;-70
2023/05/08 13:55:34;;;;;;;;;;;;;;;;;;5111601;28;20288;-70
2023/05/08 13:58:00;;;;;;;;;;;;;;;;;;5111241;28;19909;-70
2023/05/08 14:00:26;;;;;;;;;;;;;;;;;;5112127;28;20279;-69
2023/05/08 14:02:52;;;;;;;;;;;;;;;;;;5111106;28;19908;-70
2023/05/08 14:05:18;;;;;;;;;;;;;;;;;;5111414;28;19953;-69
2023/05/08 14:07:44;;;;;;;;;;;;;;;;;;5111269;28;19923;-69
2023/05/08 14:10:10;;;;;;;;;;;;;;;;;;5110899;28;20516;-70
2023/05/08 14:14:45;;;;;;;;;;;;;;;;;;5091609;27;20395;-69
2023/05/08 14:17:11;;;;;;;;;;;;;;;;;;5090971;28;20005;-70
2023/05/08 14:19:37;;;;;;;;;;;;;;;;;;5091407;28;20368;-70
2023/05/08 14:25:09;;;;;;;;;;;;;;;;;;5111457;27;20007;-69
2023/05/08 14:28:32;;;;;;;;;;;;;;;;;;5091362;27;20381;-69
2023/05/08 14:33:37;;;;;;;;;;;;;;;;;;5092089;27;20276;-70
2023/05/08 14:36:03;;;;;;;;;;;;;;;;;;5091525;28;19981;-69
2023/05/08 14:40:17;;;;;;;;;;;;;;;;;;5091359;28;19916;-70
2023/05/08 14:42:43;;;;;;;;;;;;;;;;;;5091466;28;19999;-70
2023/05/08 14:49:48;;;;;;;;;;;;;;;;;;5091672;27;19917;-70
2023/05/08 14:52:14;;;;;;;;;;;;;;;;;;5089612;28;19999;-71
2023/05/08 14:54:40;;;;;;;;;;;;;;;;;;5091174;28;20391;-70
2023/05/08 16:28:38;;;;;;;;;;;;;;;;;;5152890;27;19922;-65
2023/05/08 16:33:39;;;;;;;;;;;;;;;;;;5112635;27;19922;-66
2023/05/08 16:36:05;;;;;;;;;;;;;;;;;;5110103;28;19998;-66
2023/05/08 16:43:07;;;;;;;;;;;;;;;;;;5152815;27;19912;-66
2023/05/08 16:45:34;;;;;;;;;;;;;;;;;;5153003;27;19915;-66
2023/05/08 16:48:00;;;;;;;;;;;;;;;;;;5152849;27;19914;-66
2023/05/08 16:50:55;;;;;;;;;;;;;;;;;;5111370;27;19916;-66
2023/05/08 16:54:31;;;;;;;;;;;;;;;;;;5111729;27;19912;-68
2023/05/08 16:57:09;;;;;;;;;;;;;;;;;;5111640;27;19912;-68
2023/05/08 16:59:35;;;;;;;;;;;;;;;;;;5111706;28;19912;-67
2023/05/08 17:02:01;;;;;;;;;;;;;;;;;;5111743;28;19908;-67
2023/05/08 17:08:50;;;;;;;;;;;;;;;;;;5153035;27;19918;-67
2023/05/08 17:11:15;;;;;;;;;;;;;;;;;;5152509;27;20274;-67
2023/05/08 17:16:38;;;;;;;;;;;;;;;;;;5111377;27;19916;-67
2023/05/08 17:19:45;;;;;;;;;;;;;;;;;;5153223;27;20072;-67
2023/05/08 17:22:11;;;;;;;;;;;;;;;;;;5152841;27;19918;-67
2023/05/08 17:28:27;;;;;;;;;;;;;;;;;;5111958;27;19923;-65
2023/05/08 17:33:13;;;;;;;;;;;;;;;;;;5152611;27;19911;-66
2023/05/08 17:35:39;;;;;;;;;;;;;;;;;;5152891;27;19912;-67
2023/05/08 17:38:05;;;;;;;;;;;;;;;;;;5152453;27;19907;-67
2023/05/08 17:44:28;;;;;;;;;;;;;;;;;;5091323;28;19924;-66
2023/05/08 17:46:54;;;;;;;;;;;;;;;;;;5090894;28;20272;-66
2023/05/08 17:55:17;;;;;;;;;;;;;;;;;;5112648;27;19916;-67
2023/05/08 17:58:40;;;;;;;;;;;;;;;;;;5111989;27;19922;-64
2023/05/08 18:01:06;;;;;;;;;;;;;;;;;;5111565;28;20003;-65
2023/05/08 18:03:32;;;;;;;;;;;;;;;;;;5110742;28;19936;-64
2023/05/08 18:10:57;;;;;;;;;;;;;;;;;;5112027;27;19912;-65
2023/05/08 18:14:24;;;;;;;;;;;;;;;;;;5152759;27;19918;-67
2023/05/08 18:18:18;;;;;;;;;;;;;;;;;;5112037;27;19912;-67
2023/05/08 18:20:44;;;;;;;;;;;;;;;;;;5109978;28;20062;-66
2023/05/08 18:23:10;;;;;;;;;;;;;;;;;;5111704;28;19908;-67
2023/05/08 18:25:36;;;;;;;;;;;;;;;;;;5110403;28;19914;-67
2023/05/08 18:30:38;;;;;;;;;;;;;;;;;;5173824;27;19915;-65
2023/05/08 18:35:28;;;;;;;;;;;;;;;;;;5134359;27;19923;-67
2023/05/08 18:37:53;;;;;;;;;;;;;;;;;;5134341;27;19915;-67
2023/05/08 18:40:19;;;;;;;;;;;;;;;;;;5153128;27;19952;-67
2023/05/08 18:42:45;;;;;;;;;;;;;;;;;;5152491;27;19907;-67
2023/05/08 18:46:34;;;;;;;;;;;;;;;;;;5154594;27;19915;-66
2023/05/08 18:49:00;;;;;;;;;;;;;;;;;;5152585;27;20374;-66
2023/05/08 18:51:26;;;;;;;;;;;;;;;;;;5152872;27;19914;-68
2023/05/08 18:54:54;;;;;;;;;;;;;;;;;;5173709;27;20238;-66
2023/05/08 18:57:20;;;;;;;;;;;;;;;;;;5173486;27;19995;-66
2023/05/08 19:01:19;;;;;;;;;;;;;;;;;;5111858;27;20302;-67
2023/05/08 19:03:46;;;;;;;;;;;;;;;;;;5111375;28;20260;-67
2023/05/08 19:06:55;;;;;;;;;;;;;;;;;;5153027;27;20045;-66
2023/05/08 19:09:21;;;;;;;;;;;;;;;;;;5152973;27;19912;-67
2023/05/08 19:14:04;;;;;;;;;;;;;;;;;;5091577;28;19919;-66
2023/05/08 19:19:00;;;;;;;;;;;;;;;;;;5132404;27;19920;-66
2023/05/08 19:21:39;;;;;;;;;;;;;;;;;;5153134;27;19917;-66
2023/05/08 19:24:05;;;;;;;;;;;;;;;;;;5152606;27;19911;-66
2023/05/08 19:27:37;;;;;;;;;;;;;;;;;;5111884;27;19916;-65
2023/05/08 19:30:03;;;;;;;;;;;;;;;;;;5111904;28;19954;-66
2023/05/08 19:38:51;;;;;;;;;;;;;;;;;;5111302;28;20400;-66
2023/05/08 19:44:31;;;;;;;;;;;;;;;;;;5111700;27;19938;-67
2023/05/08 19:47:32;;;;;;;;;;;;;;;;;;5111610;27;19918;-66
2023/05/08 19:54:13;;;;;;;;;;;;;;;;;;5057203;27;2146537;-66
2023/05/08 19:56:38;;;;;;;;;;;;;;;;;;5132261;28;19994;-67
2023/05/08 19:59:04;;;;;;;;;;;;;;;;;;5131783;28;19911;-67
2023/05/08 20:04:59;;;;;;;;;;;;;;;;;;5112626;27;19915;-67
2023/05/08 20:07:25;;;;;;;;;;;;;;;;;;5111331;28;19912;-67
2023/05/08 20:09:51;;;;;;;;;;;;;;;;;;5111950;28;19908;-67
2023/05/08 20:12:17;;;;;;;;;;;;;;;;;;5110388;28;20007;-67
2023/05/08 20:16:46;;;;;;;;;;;;;;;;;;5112541;27;19919;-67
2023/05/08 20:19:12;;;;;;;;;;;;;;;;;;5111755;28;20387;-67
2023/05/08 20:21:38;;;;;;;;;;;;;;;;;;5110040;28;20375;-67
2023/05/08 20:24:04;;;;;;;;;;;;;;;;;;5110393;28;19914;-67
2023/05/08 20:26:31;;;;;;;;;;;;;;;;;;5111617;28;19967;-67
2023/05/08 20:29:53;;;;;;;;;;;;;;;;;;5112201;27;19916;-66
2023/05/08 20:32:19;;;;;;;;;;;;;;;;;;5110427;28;20010;-66
2023/05/08 20:34:45;;;;;;;;;;;;;;;;;;5111330;28;19961;-67
2023/05/08 20:40:00;;;;;;;;;;;;;;;;;;5091504;28;19916;-67
2023/05/08 20:46:17;;;;;;;;;;;;;;;;;;5153482;27;19915;-67
2023/05/08 20:51:18;;;;;;;;;;;;;;;;;;5112090;27;19916;-67
2023/05/08 20:53:44;;;;;;;;;;;;;;;;;;5111805;28;19912;-67
2023/05/08 20:56:10;;;;;;;;;;;;;;;;;;5111394;28;19915;-68
2023/05/08 20:58:35;;;;;;;;;;;;;;;;;;5112043;28;20359;-65
2023/05/08 21:01:01;;;;;;;;;;;;;;;;;;5111646;28;19930;-67
2023/05/08 21:03:27;;;;;;;;;;;;;;;;;;5111130;28;19995;-66
2023/05/08 21:05:53;;;;;;;;;;;;;;;;;;5111513;28;20283;-68
2023/05/08 21:10:27;;;;;;;;;;;;;;;;;;5131998;27;20298;-67
2023/05/08 21:12:53;;;;;;;;;;;;;;;;;;5132299;28;19915;-68
2023/05/08 21:15:19;;;;;;;;;;;;;;;;;;5132190;28;19947;-67
2023/05/08 21:22:48;;;;;;;;;;;;;;;;;;5153509;27;20002;-67
2023/05/08 21:25:14;;;;;;;;;;;;;;;;;;5152594;27;19911;-67
2023/05/08 21:27:40;;;;;;;;;;;;;;;;;;5152895;27;19907;-67
2023/05/08 21:30:06;;;;;;;;;;;;;;;;;;5152451;27;19911;-67
2023/05/08 21:32:32;;;;;;;;;;;;;;;;;;5134229;27;19911;-67
2023/05/08 21:36:05;;;;;;;;;;;;;;;;;;5112196;27;19920;-67
2023/05/08 21:45:13;;;;;;;;;;;;;;;;;;5111774;27;19916;-67
2023/05/08 21:51:52;;;;;;;;;;;;;;;;;;5152665;27;19937;-67
2023/05/08 21:56:51;;;;;;;;;;;;;;;;;;5112363;27;19916;-66
2023/05/08 21:59:17;;;;;;;;;;;;;;;;;;5110098;28;20261;-66
2023/05/08 22:04:08;;;;;;;;;;;;;;;;;;5112067;27;19912;-67